sensor_id;sensor_type;location;lat;lon;timestamp;pressure;altitude;pressure_sealevel;temperature;humidity
66762;BME280;53672;48.176;16.338;2022-11-15T00:03:06;99392.25;;;5.81;100.00
66762;BME280;53672;48.176;16.338;2022-11-15T00:08:08;99383.06;;;5.77;100.00
66762;BME280;53672;48.176;16.338;2022-11-15T00:13:10;99375.69;;;5.84;100.00
66762;BME280;53672;48.176;16.338;2022-11-15T00:18:12;99372.94;;;5.79;100.00
66762;BME280;53672;48.176;16.338;2022-11-15T00:23:14;99374.56;;;5.80;100.00
66762;BME280;53672;48.176;16.338;2022-11-15T00:28:15;99372.44;;;5.82;100.00
66762;BME280;53672;48.176;16.338;2022-11-15T00:33:15;99376.09;;;5.76;100.00
66762;BME280;53672;48.176;16.338;2022-11-15T00:38:17;99371.31;;;5.78;100.00
66762;BME280;53672;48.176;16.338;2022-11-15T00:43:18;99359.81;;;5.78;100.00
66762;BME280;53672;48.176;16.338;2022-11-15T00:48:18;99356.09;;;5.79;100.00
66762;BME280;53672;48.176;16.338;2022-11-15T00:53:20;99360.97;;;5.82;100.00
66762;BME280;53672;48.176;16.338;2022-11-15T00:58:21;99343.50;;;5.79;100.00
66762;BME280;53672;48.176;16.338;2022-11-15T01:03:21;99342.47;;;5.80;100.00
66762;BME280;53672;48.176;16.338;2022-11-15T01:08:23;99345.47;;;5.84;100.00
66762;BME280;53672;48.176;16.338;2022-11-15T01:13:23;99337.13;;;5.80;100.00
66762;BME280;53672;48.176;16.338;2022-11-15T01:18:24;99335.13;;;5.87;100.00
66762;BME280;53672;48.176;16.338;2022-11-15T01:23:26;99337.44;;;5.84;100.00
66762;BME280;53672;48.176;16.338;2022-11-15T01:28:30;99333.41;;;5.81;100.00
66762;BME280;53672;48.176;16.338;2022-11-15T01:33:30;99333.41;;;5.81;100.00
66762;BME280;53672;48.176;16.338;2022-11-15T01:38:32;99319.22;;;5.81;100.00
66762;BME280;53672;48.176;16.338;2022-11-15T01:43:35;99330.06;;;5.74;100.00
66762;BME280;53672;48.176;16.338;2022-11-15T01:48:36;99324.97;;;5.73;100.00
66762;BME280;53672;48.176;16.338;2022-11-15T01:53:39;99325.72;;;5.68;100.00
66762;BME280;53672;48.176;16.338;2022-11-15T01:58:42;99313.13;;;5.69;100.00
66762;BME280;53672;48.176;16.338;2022-11-15T02:03:48;99311.84;;;5.71;100.00
66762;BME280;53672;48.176;16.338;2022-11-15T02:08:53;99316.63;;;5.69;100.00
66762;BME280;53672;48.176;16.338;2022-11-15T02:13:54;99319.88;;;5.71;100.00
66762;BME280;53672;48.176;16.338;2022-11-15T02:19:01;99304.38;;;5.73;100.00
66762;BME280;53672;48.176;16.338;2022-11-15T02:29:47;99302.28;;;5.75;100.00
66762;BME280;53672;48.176;16.338;2022-11-15T02:35:02;99309.50;;;5.75;100.00
66762;BME280;53672;48.176;16.338;2022-11-15T02:40:10;99312.72;;;5.77;100.00
66762;BME280;53672;48.176;16.338;2022-11-15T02:45:16;99308.19;;;5.77;100.00
66762;BME280;53672;48.176;16.338;2022-11-15T02:50:21;99316.72;;;5.74;100.00
66762;BME280;53672;48.176;16.338;2022-11-15T02:55:26;99314.09;;;5.79;100.00
66762;BME280;53672;48.176;16.338;2022-11-15T03:00:30;99299.84;;;5.74;100.00
66762;BME280;53672;48.176;16.338;2022-11-15T03:05:42;99307.16;;;5.78;100.00
66762;BME280;53672;48.176;16.338;2022-11-15T03:10:51;99294.28;;;5.75;100.00
66762;BME280;53672;48.176;16.338;2022-11-15T03:16:03;99284.03;;;5.72;100.00
66762;BME280;53672;48.176;16.338;2022-11-15T03:21:08;99276.81;;;5.73;100.00
66762;BME280;53672;48.176;16.338;2022-11-15T03:26:12;99273.09;;;5.74;100.00
66762;BME280;53672;48.176;16.338;2022-11-15T03:31:15;99276.59;;;5.74;100.00
66762;BME280;53672;48.176;16.338;2022-11-15T03:36:19;99261.59;;;5.73;100.00
66762;BME280;53672;48.176;16.338;2022-11-15T03:41:24;99268.31;;;5.76;100.00
66762;BME280;53672;48.176;16.338;2022-11-15T03:46:31;99261.59;;;5.73;100.00
66762;BME280;53672;48.176;16.338;2022-11-15T03:51:34;99256.56;;;5.77;100.00
66762;BME280;53672;48.176;16.338;2022-11-15T03:56:35;99246.47;;;5.79;100.00
66762;BME280;53672;48.176;16.338;2022-11-15T04:01:35;99249.91;;;5.79;100.00
66762;BME280;53672;48.176;16.338;2022-11-15T04:06:37;99253.16;;;5.81;100.00
66762;BME280;53672;48.176;16.338;2022-11-15T04:11:38;99245.22;;;5.86;100.00
66762;BME280;53672;48.176;16.338;2022-11-15T04:16:38;99238.72;;;5.82;100.00
66762;BME280;53672;48.176;16.338;2022-11-15T04:21:40;99239.06;;;5.86;100.00
66762;BME280;53672;48.176;16.338;2022-11-15T04:26:41;99232.66;;;5.87;100.00
66762;BME280;53672;48.176;16.338;2022-11-15T04:31:41;99239.38;;;5.89;100.00
66762;BME280;53672;48.176;16.338;2022-11-15T04:36:43;99235.66;;;5.90;100.00
66762;BME280;53672;48.176;16.338;2022-11-15T04:41:43;99235.66;;;5.90;100.00
66762;BME280;53672;48.176;16.338;2022-11-15T04:46:44;99225.47;;;5.87;100.00
66762;BME280;53672;48.176;16.338;2022-11-15T04:51:46;99218.56;;;5.91;100.00
66762;BME280;53672;48.176;16.338;2022-11-15T04:56:46;99213.94;;;5.87;100.00
66762;BME280;53672;48.176;16.338;2022-11-15T05:01:47;99213.22;;;5.91;100.00
66762;BME280;53672;48.176;16.338;2022-11-15T05:06:50;99215.38;;;5.94;100.00
66762;BME280;53672;48.176;16.338;2022-11-15T05:11:51;99207.38;;;5.94;100.00
66762;BME280;53672;48.176;16.338;2022-11-15T05:16:51;99211.66;;;5.95;100.00
66762;BME280;53672;48.176;16.338;2022-11-15T05:21:55;99210.84;;;5.95;100.00
66762;BME280;53672;48.176;16.338;2022-11-15T05:26:55;99199.88;;;5.96;100.00
66762;BME280;53672;48.176;16.338;2022-11-15T05:31:56;99198.28;;;5.95;100.00
66762;BME280;53672;48.176;16.338;2022-11-15T05:36:58;99193.56;;;6.02;100.00
66762;BME280;53672;48.176;16.338;2022-11-15T05:42:02;99179.06;;;5.98;100.00
66762;BME280;53672;48.176;16.338;2022-11-15T05:47:08;99180.63;;;5.94;100.00
66762;BME280;53672;48.176;16.338;2022-11-15T05:52:13;99187.91;;;5.99;100.00
66762;BME280;53672;48.176;16.338;2022-11-15T05:57:15;99190.41;;;6.05;100.00
66762;BME280;53672;48.176;16.338;2022-11-15T06:02:16;99180.13;;;5.97;100.00
66762;BME280;53672;48.176;16.338;2022-11-15T06:07:18;99192.13;;;5.95;100.00
66762;BME280;53672;48.176;16.338;2022-11-15T06:12:18;99185.78;;;6.01;100.00
66762;BME280;53672;48.176;16.338;2022-11-15T06:17:19;99195.63;;;5.95;100.00
66762;BME280;53672;48.176;16.338;2022-11-15T06:22:21;99194.84;;;6.00;100.00
66762;BME280;53672;48.176;16.338;2022-11-15T06:27:21;99200.22;;;6.00;100.00
66762;BME280;53672;48.176;16.338;2022-11-15T06:32:21;99188.25;;;6.07;100.00
66762;BME280;53672;48.176;16.338;2022-11-15T06:37:23;99191.25;;;6.11;100.00
66762;BME280;53672;48.176;16.338;2022-11-15T06:42:24;99194.25;;;6.15;100.00
66762;BME280;53672;48.176;16.338;2022-11-15T06:47:24;99196.88;;;6.09;100.00
66762;BME280;53672;48.176;16.338;2022-11-15T06:52:26;99198.97;;;6.07;100.00
66762;BME280;53672;48.176;16.338;2022-11-15T06:57:27;99205.69;;;6.10;100.00
66762;BME280;53672;48.176;16.338;2022-11-15T07:02:27;99201.13;;;6.10;100.00
66762;BME280;53672;48.176;16.338;2022-11-15T07:07:29;99197.72;;;6.15;100.00
66762;BME280;53672;48.176;16.338;2022-11-15T07:12:29;99197.22;;;6.18;100.00
66762;BME280;53672;48.176;16.338;2022-11-15T07:17:30;99199.41;;;6.21;100.00
66762;BME280;53672;48.176;16.338;2022-11-15T07:22:32;99190.81;;;6.19;100.00
66762;BME280;53672;48.176;16.338;2022-11-15T07:27:32;99184.34;;;6.15;100.00
66762;BME280;53672;48.176;16.338;2022-11-15T07:32:34;99188.16;;;6.19;100.00
66762;BME280;53672;48.176;16.338;2022-11-15T07:37:36;99175.59;;;6.20;100.00
66762;BME280;53672;48.176;16.338;2022-11-15T07:42:36;99177.47;;;6.24;100.00
66762;BME280;53672;48.176;16.338;2022-11-15T07:47:36;99176.19;;;6.27;100.00
66762;BME280;53672;48.176;16.338;2022-11-15T07:52:38;99181.16;;;6.40;100.00
66762;BME280;53672;48.176;16.338;2022-11-15T07:57:39;99178.41;;;6.35;100.00
66762;BME280;53672;48.176;16.338;2022-11-15T08:02:39;99179.97;;;6.31;100.00
66762;BME280;53672;48.176;16.338;2022-11-15T08:07:41;99167.16;;;6.33;100.00
66762;BME280;53672;48.176;16.338;2022-11-15T08:12:42;99166.94;;;6.39;100.00
66762;BME280;53672;48.176;16.338;2022-11-15T08:17:42;99170.06;;;6.31;100.00
66762;BME280;53672;48.176;16.338;2022-11-15T08:22:44;99165.84;;;6.35;100.00
66762;BME280;53672;48.176;16.338;2022-11-15T08:27:45;99163.69;;;6.37;100.00
66762;BME280;53672;48.176;16.338;2022-11-15T08:32:45;99155.28;;;6.50;100.00
66762;BME280;53672;48.176;16.338;2022-11-15T08:37:47;99160.81;;;6.44;100.00
66762;BME280;53672;48.176;16.338;2022-11-15T08:42:48;99164.47;;;6.59;100.00
66762;BME280;53672;48.176;16.338;2022-11-15T08:47:49;99160.69;;;6.55;100.00
66762;BME280;53672;48.176;16.338;2022-11-15T08:52:51;99171.69;;;6.59;100.00
66762;BME280;53672;48.176;16.338;2022-11-15T08:57:51;99166.09;;;6.60;100.00
66762;BME280;53672;48.176;16.338;2022-11-15T09:02:52;99163.31;;;6.50;100.00
66762;BME280;53672;48.176;16.338;2022-11-15T09:07:54;99164.69;;;6.53;100.00
66762;BME280;53672;48.176;16.338;2022-11-15T09:12:56;99159.56;;;6.51;100.00
66762;BME280;53672;48.176;16.338;2022-11-15T09:17:58;99137.81;;;6.43;100.00
66762;BME280;53672;48.176;16.338;2022-11-15T09:23:00;99133.22;;;6.38;100.00
66762;BME280;53672;48.176;16.338;2022-11-15T09:28:05;99141.53;;;6.42;100.00
66762;BME280;53672;48.176;16.338;2022-11-15T09:33:07;99137.03;;;6.47;100.00
66762;BME280;53672;48.176;16.338;2022-11-15T09:38:09;99130.81;;;6.37;100.00
66762;BME280;53672;48.176;16.338;2022-11-15T09:43:26;99118.97;;;6.33;100.00
66762;BME280;53672;48.176;16.338;2022-11-15T09:48:53;99109.94;;;6.39;100.00
66762;BME280;53672;48.176;16.338;2022-11-15T09:54:02;99105.09;;;6.36;100.00
66762;BME280;53672;48.176;16.338;2022-11-15T09:59:27;99103.22;;;6.36;100.00
66762;BME280;53672;48.176;16.338;2022-11-15T10:04:34;99092.81;;;6.40;100.00
66762;BME280;53672;48.176;16.338;2022-11-15T10:09:41;99093.44;;;6.52;100.00
66762;BME280;53672;48.176;16.338;2022-11-15T10:14:43;99077.47;;;6.62;100.00
66762;BME280;53672;48.176;16.338;2022-11-15T10:19:52;99065.69;;;6.63;100.00
66762;BME280;53672;48.176;16.338;2022-11-15T10:25:11;99066.66;;;6.52;100.00
66762;BME280;53672;48.176;16.338;2022-11-15T10:30:15;99050.97;;;6.60;100.00
66762;BME280;53672;48.176;16.338;2022-11-15T10:35:24;99045.25;;;6.52;100.00
66762;BME280;53672;48.176;16.338;2022-11-15T10:40:26;99038.84;;;6.53;100.00
66762;BME280;53672;48.176;16.338;2022-11-15T10:45:29;99039.69;;;6.58;100.00
66762;BME280;53672;48.176;16.338;2022-11-15T10:50:31;99023.69;;;6.69;100.00
66762;BME280;53672;48.176;16.338;2022-11-15T10:55:34;99013.25;;;6.72;100.00
66762;BME280;53672;48.176;16.338;2022-11-15T11:00:36;99016.56;;;6.84;100.00
66762;BME280;53672;48.176;16.338;2022-11-15T11:05:39;99013.63;;;6.86;100.00
66762;BME280;53672;48.176;16.338;2022-11-15T11:10:52;99006.44;;;6.91;100.00
66762;BME280;53672;48.176;16.338;2022-11-15T11:16:00;98991.91;;;6.82;100.00
66762;BME280;53672;48.176;16.338;2022-11-15T11:21:09;98992.88;;;6.66;100.00
66762;BME280;53672;48.176;16.338;2022-11-15T11:26:25;98977.41;;;6.78;100.00
66762;BME280;53672;48.176;16.338;2022-11-15T11:31:37;98973.91;;;6.73;100.00
66762;BME280;53672;48.176;16.338;2022-11-15T11:36:42;98974.47;;;6.80;100.00
66762;BME280;53672;48.176;16.338;2022-11-15T11:41:56;98964.63;;;6.95;100.00
66762;BME280;53672;48.176;16.338;2022-11-15T11:47:00;98961.69;;;6.92;100.00
66762;BME280;53672;48.176;16.338;2022-11-15T11:52:05;98948.59;;;7.00;100.00
66762;BME280;53672;48.176;16.338;2022-11-15T11:57:15;98936.25;;;6.94;100.00
66762;BME280;53672;48.176;16.338;2022-11-15T12:02:24;98932.59;;;7.16;100.00
66762;BME280;53672;48.176;16.338;2022-11-15T12:07:29;98922.41;;;7.18;100.00
66762;BME280;53672;48.176;16.338;2022-11-15T12:12:38;98912.78;;;7.27;100.00
66762;BME280;53672;48.176;16.338;2022-11-15T12:17:41;98902.59;;;7.24;100.00
66762;BME280;53672;48.176;16.338;2022-11-15T12:22:44;98891.91;;;7.29;100.00
66762;BME280;53672;48.176;16.338;2022-11-15T12:27:52;98879.81;;;7.21;100.00
66762;BME280;53672;48.176;16.338;2022-11-15T12:32:56;98870.97;;;7.21;100.00
66762;BME280;53672;48.176;16.338;2022-11-15T12:37:58;98873.13;;;7.34;100.00
66762;BME280;53672;48.176;16.338;2022-11-15T12:48:51;98865.66;;;7.51;100.00
66762;BME280;53672;48.176;16.338;2022-11-15T12:53:52;98861.34;;;7.40;100.00
66762;BME280;53672;48.176;16.338;2022-11-15T12:58:55;98850.63;;;7.35;100.00
66762;BME280;53672;48.176;16.338;2022-11-15T13:04:13;98842.56;;;7.40;100.00
66762;BME280;53672;48.176;16.338;2022-11-15T13:15:01;98830.78;;;7.36;100.00
66762;BME280;53672;48.176;16.338;2022-11-15T13:20:22;98825.97;;;7.43;100.00
66762;BME280;53672;48.176;16.338;2022-11-15T13:25:50;98820.06;;;7.46;100.00
66762;BME280;53672;48.176;16.338;2022-11-15T13:30:55;98817.38;;;7.46;100.00
66762;BME280;53672;48.176;16.338;2022-11-15T13:35:59;98818.97;;;7.47;100.00
66762;BME280;53672;48.176;16.338;2022-11-15T13:41:13;98813.63;;;7.42;100.00
66762;BME280;53672;48.176;16.338;2022-11-15T13:46:18;98807.72;;;7.45;100.00
66762;BME280;53672;48.176;16.338;2022-11-15T13:51:23;98801.03;;;7.37;100.00
66762;BME280;53672;48.176;16.338;2022-11-15T13:56:26;98781.97;;;7.44;100.00
66762;BME280;53672;48.176;16.338;2022-11-15T14:01:30;98774.47;;;7.51;100.00
66762;BME280;53672;48.176;16.338;2022-11-15T14:06:44;98770.19;;;7.55;100.00
66762;BME280;53672;48.176;16.338;2022-11-15T14:11:55;98756.00;;;7.49;100.00
66762;BME280;53672;48.176;16.338;2022-11-15T14:16:57;98756.78;;;7.55;100.00
66762;BME280;53672;48.176;16.338;2022-11-15T14:22:11;98744.69;;;7.57;100.00
66762;BME280;53672;48.176;16.338;2022-11-15T14:27:22;98765.91;;;7.59;100.00
66762;BME280;53672;48.176;16.338;2022-11-15T14:32:25;98762.69;;;7.67;100.00
66762;BME280;53672;48.176;16.338;2022-11-15T14:37:29;98763.22;;;7.69;100.00
66762;BME280;53672;48.176;16.338;2022-11-15T14:42:30;98756.50;;;7.77;100.00
66762;BME280;53672;48.176;16.338;2022-11-15T14:47:31;98746.84;;;7.81;100.00
66762;BME280;53672;48.176;16.338;2022-11-15T14:52:33;98746.03;;;7.80;100.00
66762;BME280;53672;48.176;16.338;2022-11-15T14:57:33;98739.81;;;7.85;100.00
66762;BME280;53672;48.176;16.338;2022-11-15T15:02:34;98718.66;;;7.83;100.00
66762;BME280;53672;48.176;16.338;2022-11-15T15:07:36;98732.31;;;7.87;100.00
66762;BME280;53672;48.176;16.338;2022-11-15T15:12:36;98723.72;;;7.85;100.00
66762;BME280;53672;48.176;16.338;2022-11-15T15:17:40;98730.16;;;7.89;100.00
66762;BME280;53672;48.176;16.338;2022-11-15T15:22:42;98736.59;;;7.88;100.00
66762;BME280;53672;48.176;16.338;2022-11-15T15:27:43;98723.19;;;7.88;100.00
66762;BME280;53672;48.176;16.338;2022-11-15T15:32:43;98728.28;;;7.89;100.00
66762;BME280;53672;48.176;16.338;2022-11-15T15:37:46;98719.16;;;7.90;100.00
66762;BME280;53672;48.176;16.338;2022-11-15T15:42:47;98711.63;;;7.92;100.00
66762;BME280;53672;48.176;16.338;2022-11-15T15:47:48;98704.13;;;7.94;100.00
66762;BME280;53672;48.176;16.338;2022-11-15T15:52:50;98703.84;;;7.96;100.00
66762;BME280;53672;48.176;16.338;2022-11-15T15:57:51;98695.53;;;7.97;100.00
66762;BME280;53672;48.176;16.338;2022-11-15T16:02:53;98683.97;;;8.02;100.00
66762;BME280;53672;48.176;16.338;2022-11-15T16:07:55;98686.91;;;8.05;100.00
66762;BME280;53672;48.176;16.338;2022-11-15T16:12:56;98684.81;;;7.97;100.00
66762;BME280;53672;48.176;16.338;2022-11-15T16:17:58;98687.19;;;7.99;100.00
66762;BME280;53672;48.176;16.338;2022-11-15T16:23:01;98690.44;;;8.01;100.00
66762;BME280;53672;48.176;16.338;2022-11-15T16:28:01;98680.50;;;7.96;100.00
66762;BME280;53672;48.176;16.338;2022-11-15T16:33:02;98676.25;;;7.90;100.00
66762;BME280;53672;48.176;16.338;2022-11-15T16:38:04;98683.22;;;7.86;100.00
66762;BME280;53672;48.176;16.338;2022-11-15T16:43:04;98688.84;;;7.85;100.00
66762;BME280;53672;48.176;16.338;2022-11-15T16:48:05;98685.91;;;7.86;100.00
66762;BME280;53672;48.176;16.338;2022-11-15T16:53:07;98670.91;;;7.75;100.00
66762;BME280;53672;48.176;16.338;2022-11-15T16:58:08;98666.34;;;7.76;100.00
66762;BME280;53672;48.176;16.338;2022-11-15T17:03:09;98675.72;;;7.83;100.00
66762;BME280;53672;48.176;16.338;2022-11-15T17:08:11;98677.31;;;7.84;100.00
66762;BME280;53672;48.176;16.338;2022-11-15T17:13:12;98665.50;;;7.85;100.00
66762;BME280;53672;48.176;16.338;2022-11-15T17:18:13;98668.44;;;7.89;100.00
66762;BME280;53672;48.176;16.338;2022-11-15T17:23:15;98661.47;;;7.88;100.00
66762;BME280;53672;48.176;16.338;2022-11-15T17:28:16;98669.25;;;7.84;100.00
66762;BME280;53672;48.176;16.338;2022-11-15T17:33:16;98654.28;;;7.83;100.00
66762;BME280;53672;48.176;16.338;2022-11-15T17:38:18;98647.28;;;7.82;100.00
66762;BME280;53672;48.176;16.338;2022-11-15T17:43:19;98647.81;;;7.84;100.00
66762;BME280;53672;48.176;16.338;2022-11-15T17:48:20;98636.81;;;7.86;100.00
66762;BME280;53672;48.176;16.338;2022-11-15T17:53:22;98636.81;;;7.86;100.00
66762;BME280;53672;48.176;16.338;2022-11-15T17:58:24;98629.03;;;7.84;100.00
66762;BME280;53672;48.176;16.338;2022-11-15T18:03:26;98612.66;;;7.86;100.00
66762;BME280;53672;48.176;16.338;2022-11-15T18:08:29;98605.97;;;7.83;100.00
66762;BME280;53672;48.176;16.338;2022-11-15T18:13:30;98605.13;;;7.88;100.00
66762;BME280;53672;48.176;16.338;2022-11-15T18:18:32;98592.28;;;7.85;100.00
66762;BME280;53672;48.176;16.338;2022-11-15T18:23:35;98599.00;;;7.82;100.00
66762;BME280;53672;48.176;16.338;2022-11-15T18:28:38;98603.31;;;7.78;100.00
66762;BME280;53672;48.176;16.338;2022-11-15T18:33:40;98594.19;;;7.79;100.00
66762;BME280;53672;48.176;16.338;2022-11-15T18:38:42;98594.75;;;7.76;100.00
66762;BME280;53672;48.176;16.338;2022-11-15T18:43:44;98591.72;;;7.88;100.00
66762;BME280;53672;48.176;16.338;2022-11-15T18:48:46;98594.41;;;7.88;100.00
66762;BME280;53672;48.176;16.338;2022-11-15T18:53:51;98593.38;;;7.84;100.00
66762;BME280;53672;48.176;16.338;2022-11-15T18:58:55;98596.31;;;7.87;100.00
66762;BME280;53672;48.176;16.338;2022-11-15T19:03:57;98593.41;;;7.74;100.00
66762;BME280;53672;48.176;16.338;2022-11-15T19:08:59;98575.41;;;7.79;100.00
66762;BME280;53672;48.176;16.338;2022-11-15T19:14:02;98570.88;;;7.75;100.00
66762;BME280;53672;48.176;16.338;2022-11-15T19:19:05;98558.81;;;7.72;100.00
66762;BME280;53672;48.176;16.338;2022-11-15T19:24:08;98570.31;;;7.78;100.00
66762;BME280;53672;48.176;16.338;2022-11-15T19:29:09;98571.91;;;7.79;100.00
66762;BME280;53672;48.176;16.338;2022-11-15T19:34:11;98584.50;;;7.83;100.00
66762;BME280;53672;48.176;16.338;2022-11-15T19:39:14;98577.53;;;7.82;100.00
66762;BME280;53672;48.176;16.338;2022-11-15T19:44:15;98573.00;;;7.78;100.00
66762;BME280;53672;48.176;16.338;2022-11-15T19:49:16;98565.75;;;7.78;100.00
66762;BME280;53672;48.176;16.338;2022-11-15T19:54:18;98563.34;;;7.77;100.00
66762;BME280;53672;48.176;16.338;2022-11-15T19:59:19;98550.75;;;7.77;100.00
66762;BME280;53672;48.176;16.338;2022-11-15T20:04:20;98542.66;;;7.82;100.00
66762;BME280;53672;48.176;16.338;2022-11-15T20:09:24;98541.84;;;7.87;100.00
66762;BME280;53672;48.176;16.338;2022-11-15T20:14:24;98531.91;;;7.87;100.00
66762;BME280;53672;48.176;16.338;2022-11-15T20:19:25;98530.00;;;7.88;100.00
66762;BME280;53672;48.176;16.338;2022-11-15T20:24:28;98527.31;;;7.88;100.00
66762;BME280;53672;48.176;16.338;2022-11-15T20:29:28;98516.59;;;7.88;100.00
66762;BME280;53672;48.176;16.338;2022-11-15T20:34:29;98507.97;;;7.96;100.00
66762;BME280;53672;48.176;16.338;2022-11-15T20:39:32;98501.84;;;7.90;100.00
66762;BME280;53672;48.176;16.338;2022-11-15T20:44:33;98497.56;;;7.84;100.00
66762;BME280;53672;48.176;16.338;2022-11-15T20:49:33;98499.19;;;7.85;100.00
66762;BME280;53672;48.176;16.338;2022-11-15T20:54:35;98505.09;;;7.82;100.00
66762;BME280;53672;48.176;16.338;2022-11-15T20:59:36;98507.78;;;7.82;100.00
66762;BME280;53672;48.176;16.338;2022-11-15T21:04:37;98511.53;;;7.86;100.00
66762;BME280;53672;48.176;16.338;2022-11-15T21:09:39;98493.56;;;7.82;100.00
66762;BME280;53672;48.176;16.338;2022-11-15T21:14:40;98489.88;;;7.73;100.00
66762;BME280;53672;48.176;16.338;2022-11-15T21:19:40;98486.38;;;7.72;100.00
66762;BME280;53672;48.176;16.338;2022-11-15T21:24:42;98493.06;;;7.80;100.00
66762;BME280;53672;48.176;16.338;2022-11-15T21:29:42;98483.16;;;7.75;100.00
66762;BME280;53672;48.176;16.338;2022-11-15T21:34:43;98487.16;;;7.78;100.00
66762;BME280;53672;48.176;16.338;2022-11-15T21:39:45;98489.59;;;7.74;100.00
66762;BME280;53672;48.176;16.338;2022-11-15T21:44:45;98482.09;;;7.76;100.00
66762;BME280;53672;48.176;16.338;2022-11-15T21:49:46;98476.47;;;7.73;100.00
66762;BME280;53672;48.176;16.338;2022-11-15T21:54:48;98467.38;;;7.69;100.00
66762;BME280;53672;48.176;16.338;2022-11-15T21:59:48;98462.31;;;7.62;100.00
66762;BME280;53672;48.176;16.338;2022-11-15T22:04:49;98465.50;;;7.64;100.00
66762;BME280;53672;48.176;16.338;2022-11-15T22:09:51;98459.63;;;7.62;100.00
66762;BME280;53672;48.176;16.338;2022-11-15T22:14:51;98467.13;;;7.65;100.00
66762;BME280;53672;48.176;16.338;2022-11-15T22:19:51;98458.56;;;7.63;100.00
66762;BME280;53672;48.176;16.338;2022-11-15T22:24:53;98452.41;;;7.57;100.00
66762;BME280;53672;48.176;16.338;2022-11-15T22:29:54;98448.97;;;7.52;100.00
66762;BME280;53672;48.176;16.338;2022-11-15T22:34:54;98443.09;;;7.50;100.00
66762;BME280;53672;48.176;16.338;2022-11-15T22:39:56;98431.81;;;7.48;100.00
66762;BME280;53672;48.176;16.338;2022-11-15T22:44:57;98424.06;;;7.46;100.00
66762;BME280;53672;48.176;16.338;2022-11-15T22:49:57;98408.75;;;7.52;100.00
66762;BME280;53672;48.176;16.338;2022-11-15T22:54:59;98411.44;;;7.52;100.00
66762;BME280;53672;48.176;16.338;2022-11-15T22:59:59;98417.84;;;7.56;100.00
66762;BME280;53672;48.176;16.338;2022-11-15T23:05:00;98420.72;;;7.64;100.00
66762;BME280;53672;48.176;16.338;2022-11-15T23:10:02;98407.53;;;7.73;100.00
66762;BME280;53672;48.176;16.338;2022-11-15T23:15:03;98397.94;;;7.67;100.00
66762;BME280;53672;48.176;16.338;2022-11-15T23:20:05;98392.09;;;7.60;100.00
66762;BME280;53672;48.176;16.338;2022-11-15T23:25:07;98394.22;;;7.58;100.00
66762;BME280;53672;48.176;16.338;2022-11-15T23:30:08;98386.19;;;7.58;100.00
66762;BME280;53672;48.176;16.338;2022-11-15T23:35:09;98386.19;;;7.58;100.00
66762;BME280;53672;48.176;16.338;2022-11-15T23:40:11;98378.13;;;7.58;100.00
66762;BME280;53672;48.176;16.338;2022-11-15T23:45:12;98376.25;;;7.58;100.00
66762;BME280;53672;48.176;16.338;2022-11-15T23:50:13;98365.28;;;7.60;100.00
66762;BME280;53672;48.176;16.338;2022-11-15T23:55:15;98361.25;;;7.57;100.00
